sensor_id;sensor_type;location;lat;lon;timestamp;P1;durP1;ratioP1;P2;durP2;ratioP2
17345;SDS011;8790;53.590;10.002;2023-01-10T00:00:27;15.37;;;9.27;;
17345;SDS011;8790;53.590;10.002;2023-01-10T00:03:05;19.13;;;9.80;;
17345;SDS011;8790;53.590;10.002;2023-01-10T00:05:38;19.90;;;8.57;;
17345;SDS011;8790;53.590;10.002;2023-01-10T00:08:14;16.07;;;9.03;;
17345;SDS011;8790;53.590;10.002;2023-01-10T00:10:46;18.93;;;8.87;;
17345;SDS011;8790;53.590;10.002;2023-01-10T00:13:18;14.20;;;8.17;;
17345;SDS011;8790;53.590;10.002;2023-01-10T00:15:55;16.37;;;8.40;;
17345;SDS011;8790;53.590;10.002;2023-01-10T00:18:27;15.27;;;8.37;;
17345;SDS011;8790;53.590;10.002;2023-01-10T00:20:59;14.80;;;7.73;;
17345;SDS011;8790;53.590;10.002;2023-01-10T00:23:32;16.33;;;7.47;;
17345;SDS011;8790;53.590;10.002;2023-01-10T00:26:05;17.37;;;7.77;;
17345;SDS011;8790;53.590;10.002;2023-01-10T00:28:37;15.47;;;7.70;;
17345;SDS011;8790;53.590;10.002;2023-01-10T00:31:09;13.00;;;7.23;;
17345;SDS011;8790;53.590;10.002;2023-01-10T00:33:42;14.33;;;7.13;;
17345;SDS011;8790;53.590;10.002;2023-01-10T00:36:15;17.93;;;7.37;;
17345;SDS011;8790;53.590;10.002;2023-01-10T00:38:48;16.70;;;6.97;;
17345;SDS011;8790;53.590;10.002;2023-01-10T00:41:20;17.63;;;7.90;;
17345;SDS011;8790;53.590;10.002;2023-01-10T00:44:08;17.27;;;7.60;;
17345;SDS011;8790;53.590;10.002;2023-01-10T00:46:40;11.60;;;6.63;;
17345;SDS011;8790;53.590;10.002;2023-01-10T00:49:12;12.67;;;6.70;;
17345;SDS011;8790;53.590;10.002;2023-01-10T00:51:45;13.27;;;6.77;;
17345;SDS011;8790;53.590;10.002;2023-01-10T00:54:18;14.07;;;6.97;;
17345;SDS011;8790;53.590;10.002;2023-01-10T00:56:50;16.07;;;6.67;;
17345;SDS011;8790;53.590;10.002;2023-01-10T00:59:22;17.63;;;7.13;;
17345;SDS011;8790;53.590;10.002;2023-01-10T01:01:54;13.37;;;6.67;;
17345;SDS011;8790;53.590;10.002;2023-01-10T01:04:26;14.97;;;6.83;;
17345;SDS011;8790;53.590;10.002;2023-01-10T01:07:03;15.23;;;6.63;;
17345;SDS011;8790;53.590;10.002;2023-01-10T01:09:36;17.47;;;6.90;;
17345;SDS011;8790;53.590;10.002;2023-01-10T01:12:28;13.83;;;6.47;;
17345;SDS011;8790;53.590;10.002;2023-01-10T01:15:00;15.90;;;6.60;;
17345;SDS011;8790;53.590;10.002;2023-01-10T01:17:32;15.27;;;6.10;;
17345;SDS011;8790;53.590;10.002;2023-01-10T01:20:04;13.73;;;6.47;;
17345;SDS011;8790;53.590;10.002;2023-01-10T01:22:36;13.90;;;6.90;;
17345;SDS011;8790;53.590;10.002;2023-01-10T01:25:10;14.90;;;6.13;;
17345;SDS011;8790;53.590;10.002;2023-01-10T01:27:42;14.10;;;5.73;;
17345;SDS011;8790;53.590;10.002;2023-01-10T01:30:14;12.93;;;6.33;;
17345;SDS011;8790;53.590;10.002;2023-01-10T01:32:46;11.47;;;6.07;;
17345;SDS011;8790;53.590;10.002;2023-01-10T01:35:18;15.80;;;6.00;;
17345;SDS011;8790;53.590;10.002;2023-01-10T01:37:50;12.80;;;5.50;;
17345;SDS011;8790;53.590;10.002;2023-01-10T01:40:23;13.73;;;5.90;;
17345;SDS011;8790;53.590;10.002;2023-01-10T01:42:55;13.37;;;6.30;;
17345;SDS011;8790;53.590;10.002;2023-01-10T01:45:32;12.10;;;5.77;;
17345;SDS011;8790;53.590;10.002;2023-01-10T01:48:07;13.00;;;6.13;;
17345;SDS011;8790;53.590;10.002;2023-01-10T01:50:45;13.33;;;6.77;;
17345;SDS011;8790;53.590;10.002;2023-01-10T01:53:22;19.93;;;6.70;;
17345;SDS011;8790;53.590;10.002;2023-01-10T01:56:00;12.67;;;6.50;;
17345;SDS011;8790;53.590;10.002;2023-01-10T01:58:36;15.40;;;6.80;;
17345;SDS011;8790;53.590;10.002;2023-01-10T02:01:11;13.93;;;6.27;;
17345;SDS011;8790;53.590;10.002;2023-01-10T02:03:46;12.17;;;6.00;;
17345;SDS011;8790;53.590;10.002;2023-01-10T02:06:21;14.43;;;6.23;;
17345;SDS011;8790;53.590;10.002;2023-01-10T02:08:55;15.17;;;5.97;;
17345;SDS011;8790;53.590;10.002;2023-01-10T02:11:34;12.33;;;5.67;;
17345;SDS011;8790;53.590;10.002;2023-01-10T02:14:06;17.27;;;6.60;;
17345;SDS011;8790;53.590;10.002;2023-01-10T02:16:40;12.03;;;6.13;;
17345;SDS011;8790;53.590;10.002;2023-01-10T02:19:14;11.50;;;6.10;;
17345;SDS011;8790;53.590;10.002;2023-01-10T02:28:06;13.83;;;6.27;;
17345;SDS011;8790;53.590;10.002;2023-01-10T02:30:59;8.90;;;5.67;;
17345;SDS011;8790;53.590;10.002;2023-01-10T02:33:55;13.00;;;6.13;;
17345;SDS011;8790;53.590;10.002;2023-01-10T02:36:34;12.93;;;6.53;;
17345;SDS011;8790;53.590;10.002;2023-01-10T02:39:15;16.97;;;6.17;;
17345;SDS011;8790;53.590;10.002;2023-01-10T02:41:53;14.67;;;6.13;;
17345;SDS011;8790;53.590;10.002;2023-01-10T02:44:29;12.07;;;5.63;;
17345;SDS011;8790;53.590;10.002;2023-01-10T02:47:07;14.43;;;6.33;;
17345;SDS011;8790;53.590;10.002;2023-01-10T02:49:42;11.67;;;5.83;;
17345;SDS011;8790;53.590;10.002;2023-01-10T02:52:15;10.60;;;6.63;;
17345;SDS011;8790;53.590;10.002;2023-01-10T02:54:50;11.50;;;5.93;;
17345;SDS011;8790;53.590;10.002;2023-01-10T02:57:30;11.57;;;5.87;;
17345;SDS011;8790;53.590;10.002;2023-01-10T03:00:17;10.63;;;6.27;;
17345;SDS011;8790;53.590;10.002;2023-01-10T03:03:12;13.50;;;6.20;;
17345;SDS011;8790;53.590;10.002;2023-01-10T03:05:59;14.73;;;6.43;;
17345;SDS011;8790;53.590;10.002;2023-01-10T03:08:42;11.83;;;5.77;;
17345;SDS011;8790;53.590;10.002;2023-01-10T03:11:22;11.17;;;5.90;;
17345;SDS011;8790;53.590;10.002;2023-01-10T03:14:14;11.27;;;5.60;;
17345;SDS011;8790;53.590;10.002;2023-01-10T03:16:49;10.80;;;5.50;;
17345;SDS011;8790;53.590;10.002;2023-01-10T03:19:25;12.97;;;5.50;;
17345;SDS011;8790;53.590;10.002;2023-01-10T03:22:03;10.43;;;5.87;;
17345;SDS011;8790;53.590;10.002;2023-01-10T03:24:39;9.47;;;5.47;;
17345;SDS011;8790;53.590;10.002;2023-01-10T03:27:17;9.07;;;5.47;;
17345;SDS011;8790;53.590;10.002;2023-01-10T03:29:53;15.60;;;5.70;;
17345;SDS011;8790;53.590;10.002;2023-01-10T03:32:31;13.27;;;5.63;;
17345;SDS011;8790;53.590;10.002;2023-01-10T03:35:04;11.37;;;5.17;;
17345;SDS011;8790;53.590;10.002;2023-01-10T03:37:40;10.43;;;5.03;;
17345;SDS011;8790;53.590;10.002;2023-01-10T03:40:26;9.27;;;4.90;;
17345;SDS011;8790;53.590;10.002;2023-01-10T03:43:04;16.60;;;5.67;;
17345;SDS011;8790;53.590;10.002;2023-01-10T03:46:01;9.47;;;4.80;;
17345;SDS011;8790;53.590;10.002;2023-01-10T03:48:40;8.83;;;5.20;;
17345;SDS011;8790;53.590;10.002;2023-01-10T03:51:15;11.47;;;5.60;;
17345;SDS011;8790;53.590;10.002;2023-01-10T03:53:50;12.90;;;5.37;;
17345;SDS011;8790;53.590;10.002;2023-01-10T03:56:22;10.77;;;4.50;;
17345;SDS011;8790;53.590;10.002;2023-01-10T03:58:54;11.43;;;5.20;;
17345;SDS011;8790;53.590;10.002;2023-01-10T04:01:26;10.30;;;5.33;;
17345;SDS011;8790;53.590;10.002;2023-01-10T04:03:57;13.00;;;5.23;;
17345;SDS011;8790;53.590;10.002;2023-01-10T04:06:29;11.83;;;4.80;;
17345;SDS011;8790;53.590;10.002;2023-01-10T04:09:02;10.60;;;4.90;;
17345;SDS011;8790;53.590;10.002;2023-01-10T04:11:34;11.23;;;4.73;;
17345;SDS011;8790;53.590;10.002;2023-01-10T04:14:06;9.40;;;4.50;;
17345;SDS011;8790;53.590;10.002;2023-01-10T04:16:38;10.00;;;4.67;;
17345;SDS011;8790;53.590;10.002;2023-01-10T04:19:10;11.60;;;4.50;;
17345;SDS011;8790;53.590;10.002;2023-01-10T04:21:42;11.77;;;4.30;;
17345;SDS011;8790;53.590;10.002;2023-01-10T04:24:15;10.20;;;4.57;;
17345;SDS011;8790;53.590;10.002;2023-01-10T04:26:47;7.33;;;4.17;;
17345;SDS011;8790;53.590;10.002;2023-01-10T04:29:19;9.80;;;4.47;;
17345;SDS011;8790;53.590;10.002;2023-01-10T04:31:51;12.17;;;4.73;;
17345;SDS011;8790;53.590;10.002;2023-01-10T04:34:23;9.60;;;4.20;;
17345;SDS011;8790;53.590;10.002;2023-01-10T04:36:54;9.33;;;4.37;;
17345;SDS011;8790;53.590;10.002;2023-01-10T04:39:28;12.03;;;4.03;;
17345;SDS011;8790;53.590;10.002;2023-01-10T04:41:59;7.07;;;3.73;;
17345;SDS011;8790;53.590;10.002;2023-01-10T04:44:31;9.80;;;3.93;;
17345;SDS011;8790;53.590;10.002;2023-01-10T04:47:03;10.10;;;4.20;;
17345;SDS011;8790;53.590;10.002;2023-01-10T04:49:35;10.50;;;4.20;;
17345;SDS011;8790;53.590;10.002;2023-01-10T04:52:07;9.40;;;3.60;;
17345;SDS011;8790;53.590;10.002;2023-01-10T04:54:41;12.17;;;4.00;;
17345;SDS011;8790;53.590;10.002;2023-01-10T04:57:13;10.60;;;3.57;;
17345;SDS011;8790;53.590;10.002;2023-01-10T04:59:45;7.73;;;3.93;;
17345;SDS011;8790;53.590;10.002;2023-01-10T05:02:17;7.73;;;3.70;;
17345;SDS011;8790;53.590;10.002;2023-01-10T05:04:48;11.20;;;4.03;;
17345;SDS011;8790;53.590;10.002;2023-01-10T05:07:20;7.57;;;3.83;;
17345;SDS011;8790;53.590;10.002;2023-01-10T05:09:54;7.40;;;3.50;;
17345;SDS011;8790;53.590;10.002;2023-01-10T05:12:26;9.27;;;3.53;;
17345;SDS011;8790;53.590;10.002;2023-01-10T05:14:58;7.53;;;3.83;;
17345;SDS011;8790;53.590;10.002;2023-01-10T05:17:29;8.73;;;3.30;;
17345;SDS011;8790;53.590;10.002;2023-01-10T05:20:01;8.37;;;3.23;;
17345;SDS011;8790;53.590;10.002;2023-01-10T05:22:34;10.63;;;3.17;;
17345;SDS011;8790;53.590;10.002;2023-01-10T05:25:07;9.50;;;3.60;;
17345;SDS011;8790;53.590;10.002;2023-01-10T05:27:40;10.03;;;3.53;;
17345;SDS011;8790;53.590;10.002;2023-01-10T05:30:12;8.37;;;3.50;;
17345;SDS011;8790;53.590;10.002;2023-01-10T05:32:45;8.47;;;3.30;;
17345;SDS011;8790;53.590;10.002;2023-01-10T05:35:17;8.93;;;3.63;;
17345;SDS011;8790;53.590;10.002;2023-01-10T05:37:49;6.73;;;3.20;;
17345;SDS011;8790;53.590;10.002;2023-01-10T05:40:22;8.73;;;3.33;;
17345;SDS011;8790;53.590;10.002;2023-01-10T05:42:53;7.53;;;3.13;;
17345;SDS011;8790;53.590;10.002;2023-01-10T05:45:25;10.93;;;3.10;;
17345;SDS011;8790;53.590;10.002;2023-01-10T05:47:57;7.93;;;3.03;;
17345;SDS011;8790;53.590;10.002;2023-01-10T05:50:29;11.17;;;2.83;;
17345;SDS011;8790;53.590;10.002;2023-01-10T05:53:03;9.37;;;2.90;;
17345;SDS011;8790;53.590;10.002;2023-01-10T05:55:37;11.57;;;2.87;;
17345;SDS011;8790;53.590;10.002;2023-01-10T05:58:09;15.00;;;3.10;;
17345;SDS011;8790;53.590;10.002;2023-01-10T06:00:42;8.10;;;2.80;;
17345;SDS011;8790;53.590;10.002;2023-01-10T06:03:14;11.83;;;3.63;;
17345;SDS011;8790;53.590;10.002;2023-01-10T06:05:46;9.70;;;2.90;;
17345;SDS011;8790;53.590;10.002;2023-01-10T06:08:17;9.07;;;3.03;;
17345;SDS011;8790;53.590;10.002;2023-01-10T06:10:51;10.70;;;3.10;;
17345;SDS011;8790;53.590;10.002;2023-01-10T06:13:22;11.47;;;3.30;;
17345;SDS011;8790;53.590;10.002;2023-01-10T06:15:54;11.23;;;3.13;;
17345;SDS011;8790;53.590;10.002;2023-01-10T06:18:26;11.27;;;3.00;;
17345;SDS011;8790;53.590;10.002;2023-01-10T06:20:58;8.33;;;3.30;;
17345;SDS011;8790;53.590;10.002;2023-01-10T06:23:30;9.90;;;3.33;;
17345;SDS011;8790;53.590;10.002;2023-01-10T06:26:03;12.13;;;3.20;;
17345;SDS011;8790;53.590;10.002;2023-01-10T06:28:35;11.47;;;3.43;;
17345;SDS011;8790;53.590;10.002;2023-01-10T06:31:07;13.40;;;3.60;;
17345;SDS011;8790;53.590;10.002;2023-01-10T06:33:39;12.03;;;3.13;;
17345;SDS011;8790;53.590;10.002;2023-01-10T06:36:12;7.40;;;2.87;;
17345;SDS011;8790;53.590;10.002;2023-01-10T06:38:44;9.57;;;3.17;;
17345;SDS011;8790;53.590;10.002;2023-01-10T06:41:17;13.63;;;3.30;;
17345;SDS011;8790;53.590;10.002;2023-01-10T06:43:49;10.27;;;3.37;;
17345;SDS011;8790;53.590;10.002;2023-01-10T06:46:21;12.90;;;3.53;;
17345;SDS011;8790;53.590;10.002;2023-01-10T06:48:53;8.20;;;3.23;;
17345;SDS011;8790;53.590;10.002;2023-01-10T06:51:24;9.57;;;3.13;;
17345;SDS011;8790;53.590;10.002;2023-01-10T06:53:56;12.33;;;3.37;;
17345;SDS011;8790;53.590;10.002;2023-01-10T06:56:29;8.27;;;3.20;;
17345;SDS011;8790;53.590;10.002;2023-01-10T06:59:01;8.53;;;2.97;;
17345;SDS011;8790;53.590;10.002;2023-01-10T07:01:33;9.03;;;3.17;;
17345;SDS011;8790;53.590;10.002;2023-01-10T07:04:05;15.30;;;3.47;;
17345;SDS011;8790;53.590;10.002;2023-01-10T07:06:37;8.03;;;3.20;;
17345;SDS011;8790;53.590;10.002;2023-01-10T07:09:09;9.70;;;3.10;;
17345;SDS011;8790;53.590;10.002;2023-01-10T07:11:42;12.37;;;3.90;;
17345;SDS011;8790;53.590;10.002;2023-01-10T07:14:14;10.60;;;3.53;;
17345;SDS011;8790;53.590;10.002;2023-01-10T07:16:46;9.93;;;3.57;;
17345;SDS011;8790;53.590;10.002;2023-01-10T07:19:18;14.40;;;4.23;;
17345;SDS011;8790;53.590;10.002;2023-01-10T07:21:50;10.93;;;3.90;;
17345;SDS011;8790;53.590;10.002;2023-01-10T07:24:21;10.33;;;3.93;;
17345;SDS011;8790;53.590;10.002;2023-01-10T07:26:55;12.03;;;3.30;;
17345;SDS011;8790;53.590;10.002;2023-01-10T07:29:26;11.97;;;4.07;;
17345;SDS011;8790;53.590;10.002;2023-01-10T07:31:58;9.77;;;3.80;;
17345;SDS011;8790;53.590;10.002;2023-01-10T07:34:30;12.73;;;3.93;;
17345;SDS011;8790;53.590;10.002;2023-01-10T07:37:01;12.93;;;4.23;;
17345;SDS011;8790;53.590;10.002;2023-01-10T07:39:33;12.97;;;4.23;;
17345;SDS011;8790;53.590;10.002;2023-01-10T07:42:07;11.13;;;4.03;;
17345;SDS011;8790;53.590;10.002;2023-01-10T07:44:41;10.03;;;3.70;;
17345;SDS011;8790;53.590;10.002;2023-01-10T07:47:13;10.70;;;4.00;;
17345;SDS011;8790;53.590;10.002;2023-01-10T07:49:44;8.47;;;3.90;;
17345;SDS011;8790;53.590;10.002;2023-01-10T07:52:16;13.00;;;3.90;;
17345;SDS011;8790;53.590;10.002;2023-01-10T07:54:48;13.17;;;4.27;;
17345;SDS011;8790;53.590;10.002;2023-01-10T07:57:21;12.33;;;3.93;;
17345;SDS011;8790;53.590;10.002;2023-01-10T07:59:53;13.20;;;4.10;;
17345;SDS011;8790;53.590;10.002;2023-01-10T08:02:24;13.67;;;4.33;;
17345;SDS011;8790;53.590;10.002;2023-01-10T08:04:56;11.57;;;3.97;;
17345;SDS011;8790;53.590;10.002;2023-01-10T08:07:28;11.70;;;3.80;;
17345;SDS011;8790;53.590;10.002;2023-01-10T08:10:00;10.47;;;4.20;;
17345;SDS011;8790;53.590;10.002;2023-01-10T08:12:33;15.47;;;4.73;;
17345;SDS011;8790;53.590;10.002;2023-01-10T08:15:06;11.23;;;4.37;;
17345;SDS011;8790;53.590;10.002;2023-01-10T08:17:39;16.27;;;4.90;;
17345;SDS011;8790;53.590;10.002;2023-01-10T08:20:11;13.17;;;4.60;;
17345;SDS011;8790;53.590;10.002;2023-01-10T08:22:43;11.07;;;4.47;;
17345;SDS011;8790;53.590;10.002;2023-01-10T08:25:14;11.43;;;4.40;;
17345;SDS011;8790;53.590;10.002;2023-01-10T08:27:48;14.77;;;5.03;;
17345;SDS011;8790;53.590;10.002;2023-01-10T08:30:20;15.00;;;4.77;;
17345;SDS011;8790;53.590;10.002;2023-01-10T08:32:52;14.77;;;4.80;;
17345;SDS011;8790;53.590;10.002;2023-01-10T08:35:23;17.17;;;4.90;;
17345;SDS011;8790;53.590;10.002;2023-01-10T08:37:56;11.30;;;4.67;;
17345;SDS011;8790;53.590;10.002;2023-01-10T08:40:28;16.20;;;5.00;;
17345;SDS011;8790;53.590;10.002;2023-01-10T08:43:02;13.60;;;5.20;;
17345;SDS011;8790;53.590;10.002;2023-01-10T08:45:35;14.10;;;4.80;;
17345;SDS011;8790;53.590;10.002;2023-01-10T08:48:08;10.10;;;5.47;;
17345;SDS011;8790;53.590;10.002;2023-01-10T08:50:40;13.40;;;5.63;;
17345;SDS011;8790;53.590;10.002;2023-01-10T08:53:13;12.13;;;5.40;;
17345;SDS011;8790;53.590;10.002;2023-01-10T08:55:45;12.93;;;6.10;;
17345;SDS011;8790;53.590;10.002;2023-01-10T08:58:20;17.57;;;6.10;;
17345;SDS011;8790;53.590;10.002;2023-01-10T09:00:51;13.90;;;5.70;;
17345;SDS011;8790;53.590;10.002;2023-01-10T09:03:23;13.20;;;6.63;;
17345;SDS011;8790;53.590;10.002;2023-01-10T09:05:57;12.87;;;5.90;;
17345;SDS011;8790;53.590;10.002;2023-01-10T09:08:29;13.43;;;6.23;;
17345;SDS011;8790;53.590;10.002;2023-01-10T09:11:00;15.43;;;6.60;;
17345;SDS011;8790;53.590;10.002;2023-01-10T09:13:34;14.43;;;6.57;;
17345;SDS011;8790;53.590;10.002;2023-01-10T09:16:06;16.37;;;6.50;;
17345;SDS011;8790;53.590;10.002;2023-01-10T09:18:38;20.53;;;10.37;;
17345;SDS011;8790;53.590;10.002;2023-01-10T09:21:10;17.10;;;8.50;;
17345;SDS011;8790;53.590;10.002;2023-01-10T09:23:41;12.93;;;6.83;;
17345;SDS011;8790;53.590;10.002;2023-01-10T09:26:13;15.60;;;6.53;;
17345;SDS011;8790;53.590;10.002;2023-01-10T09:28:46;14.17;;;6.43;;
17345;SDS011;8790;53.590;10.002;2023-01-10T09:31:18;14.03;;;6.90;;
17345;SDS011;8790;53.590;10.002;2023-01-10T09:33:50;15.57;;;6.80;;
17345;SDS011;8790;53.590;10.002;2023-01-10T09:36:21;12.83;;;6.97;;
17345;SDS011;8790;53.590;10.002;2023-01-10T09:38:53;12.40;;;6.93;;
17345;SDS011;8790;53.590;10.002;2023-01-10T09:44:34;15.37;;;6.80;;
17345;SDS011;8790;53.590;10.002;2023-01-10T09:47:13;14.87;;;6.43;;
17345;SDS011;8790;53.590;10.002;2023-01-10T09:49:57;16.47;;;7.03;;
17345;SDS011;8790;53.590;10.002;2023-01-10T09:52:37;13.20;;;7.27;;
17345;SDS011;8790;53.590;10.002;2023-01-10T09:55:17;12.07;;;6.17;;
17345;SDS011;8790;53.590;10.002;2023-01-10T09:57:56;16.27;;;6.47;;
17345;SDS011;8790;53.590;10.002;2023-01-10T10:00:34;12.43;;;6.13;;
17345;SDS011;8790;53.590;10.002;2023-01-10T10:03:20;12.70;;;7.03;;
17345;SDS011;8790;53.590;10.002;2023-01-10T10:05:56;13.20;;;6.70;;
17345;SDS011;8790;53.590;10.002;2023-01-10T10:08:28;13.77;;;7.07;;
17345;SDS011;8790;53.590;10.002;2023-01-10T10:11:04;15.23;;;7.03;;
17345;SDS011;8790;53.590;10.002;2023-01-10T10:14:02;15.97;;;7.20;;
17345;SDS011;8790;53.590;10.002;2023-01-10T10:16:41;15.50;;;7.03;;
17345;SDS011;8790;53.590;10.002;2023-01-10T10:19:22;11.73;;;7.23;;
17345;SDS011;8790;53.590;10.002;2023-01-10T10:22:04;16.47;;;7.20;;
17345;SDS011;8790;53.590;10.002;2023-01-10T10:24:45;16.90;;;7.27;;
17345;SDS011;8790;53.590;10.002;2023-01-10T10:27:29;18.37;;;7.63;;
17345;SDS011;8790;53.590;10.002;2023-01-10T10:30:11;20.03;;;8.23;;
17345;SDS011;8790;53.590;10.002;2023-01-10T10:33:05;15.60;;;7.77;;
17345;SDS011;8790;53.590;10.002;2023-01-10T10:35:48;14.67;;;7.27;;
17345;SDS011;8790;53.590;10.002;2023-01-10T10:38:24;15.80;;;7.73;;
17345;SDS011;8790;53.590;10.002;2023-01-10T10:40:59;20.60;;;9.17;;
17345;SDS011;8790;53.590;10.002;2023-01-10T10:43:33;24.03;;;11.73;;
17345;SDS011;8790;53.590;10.002;2023-01-10T10:46:09;20.77;;;10.87;;
17345;SDS011;8790;53.590;10.002;2023-01-10T10:48:47;17.93;;;10.10;;
17345;SDS011;8790;53.590;10.002;2023-01-10T10:51:28;22.80;;;10.20;;
17345;SDS011;8790;53.590;10.002;2023-01-10T10:54:10;17.90;;;9.17;;
17345;SDS011;8790;53.590;10.002;2023-01-10T10:56:43;15.87;;;8.70;;
17345;SDS011;8790;53.590;10.002;2023-01-10T10:59:16;18.43;;;9.37;;
17345;SDS011;8790;53.590;10.002;2023-01-10T11:01:49;18.43;;;9.27;;
17345;SDS011;8790;53.590;10.002;2023-01-10T11:04:22;19.53;;;9.47;;
17345;SDS011;8790;53.590;10.002;2023-01-10T11:06:54;19.73;;;9.27;;
17345;SDS011;8790;53.590;10.002;2023-01-10T11:09:26;15.17;;;9.07;;
17345;SDS011;8790;53.590;10.002;2023-01-10T11:12:02;15.80;;;8.70;;
17345;SDS011;8790;53.590;10.002;2023-01-10T11:14:41;17.20;;;8.47;;
17345;SDS011;8790;53.590;10.002;2023-01-10T11:17:17;17.30;;;8.67;;
17345;SDS011;8790;53.590;10.002;2023-01-10T11:19:55;17.10;;;9.40;;
17345;SDS011;8790;53.590;10.002;2023-01-10T11:22:30;15.10;;;8.47;;
17345;SDS011;8790;53.590;10.002;2023-01-10T11:25:14;17.37;;;8.13;;
17345;SDS011;8790;53.590;10.002;2023-01-10T11:27:49;17.83;;;8.90;;
17345;SDS011;8790;53.590;10.002;2023-01-10T11:30:23;18.37;;;8.63;;
17345;SDS011;8790;53.590;10.002;2023-01-10T11:32:57;18.43;;;9.40;;
17345;SDS011;8790;53.590;10.002;2023-01-10T11:35:33;19.33;;;8.77;;
17345;SDS011;8790;53.590;10.002;2023-01-10T11:38:17;15.33;;;8.13;;
17345;SDS011;8790;53.590;10.002;2023-01-10T11:40:52;16.53;;;8.53;;
17345;SDS011;8790;53.590;10.002;2023-01-10T11:43:27;18.93;;;8.87;;
17345;SDS011;8790;53.590;10.002;2023-01-10T11:46:02;17.23;;;8.73;;
17345;SDS011;8790;53.590;10.002;2023-01-10T11:48:45;14.10;;;8.57;;
17345;SDS011;8790;53.590;10.002;2023-01-10T11:51:23;16.07;;;8.07;;
17345;SDS011;8790;53.590;10.002;2023-01-10T11:53:56;21.67;;;8.80;;
17345;SDS011;8790;53.590;10.002;2023-01-10T11:56:30;16.73;;;8.67;;
17345;SDS011;8790;53.590;10.002;2023-01-10T11:59:06;17.23;;;8.63;;
17345;SDS011;8790;53.590;10.002;2023-01-10T12:01:41;15.00;;;8.07;;
17345;SDS011;8790;53.590;10.002;2023-01-10T12:04:15;20.77;;;9.03;;
17345;SDS011;8790;53.590;10.002;2023-01-10T12:06:51;17.53;;;8.90;;
17345;SDS011;8790;53.590;10.002;2023-01-10T12:09:32;16.70;;;8.53;;
17345;SDS011;8790;53.590;10.002;2023-01-10T12:12:13;15.40;;;8.23;;
17345;SDS011;8790;53.590;10.002;2023-01-10T12:14:48;19.50;;;8.90;;
17345;SDS011;8790;53.590;10.002;2023-01-10T12:17:21;16.00;;;8.53;;
17345;SDS011;8790;53.590;10.002;2023-01-10T12:19:56;26.50;;;12.00;;
17345;SDS011;8790;53.590;10.002;2023-01-10T12:22:32;19.80;;;9.40;;
17345;SDS011;8790;53.590;10.002;2023-01-10T12:25:14;20.33;;;8.90;;
17345;SDS011;8790;53.590;10.002;2023-01-10T12:27:49;13.63;;;8.50;;
17345;SDS011;8790;53.590;10.002;2023-01-10T12:30:22;19.63;;;8.93;;
17345;SDS011;8790;53.590;10.002;2023-01-10T12:33:02;19.77;;;9.60;;
17345;SDS011;8790;53.590;10.002;2023-01-10T12:35:38;22.33;;;8.90;;
17345;SDS011;8790;53.590;10.002;2023-01-10T12:38:18;17.60;;;8.53;;
17345;SDS011;8790;53.590;10.002;2023-01-10T12:41:09;19.47;;;8.90;;
17345;SDS011;8790;53.590;10.002;2023-01-10T12:44:10;17.37;;;9.07;;
17345;SDS011;8790;53.590;10.002;2023-01-10T12:46:46;19.17;;;8.83;;
17345;SDS011;8790;53.590;10.002;2023-01-10T12:49:21;18.93;;;9.07;;
17345;SDS011;8790;53.590;10.002;2023-01-10T12:51:57;16.63;;;8.90;;
17345;SDS011;8790;53.590;10.002;2023-01-10T12:54:34;17.13;;;9.70;;
17345;SDS011;8790;53.590;10.002;2023-01-10T12:57:09;15.83;;;9.80;;
17345;SDS011;8790;53.590;10.002;2023-01-10T12:59:50;16.93;;;9.50;;
17345;SDS011;8790;53.590;10.002;2023-01-10T13:02:25;19.00;;;10.03;;
17345;SDS011;8790;53.590;10.002;2023-01-10T13:05:01;21.47;;;10.33;;
17345;SDS011;8790;53.590;10.002;2023-01-10T13:07:35;16.93;;;9.87;;
17345;SDS011;8790;53.590;10.002;2023-01-10T13:10:12;16.30;;;9.40;;
17345;SDS011;8790;53.590;10.002;2023-01-10T13:12:46;17.17;;;9.87;;
17345;SDS011;8790;53.590;10.002;2023-01-10T13:15:26;14.90;;;9.70;;
17345;SDS011;8790;53.590;10.002;2023-01-10T13:18:01;20.20;;;9.90;;
17345;SDS011;8790;53.590;10.002;2023-01-10T13:20:39;22.90;;;11.10;;
17345;SDS011;8790;53.590;10.002;2023-01-10T13:23:14;18.13;;;10.10;;
17345;SDS011;8790;53.590;10.002;2023-01-10T13:25:57;16.47;;;10.03;;
17345;SDS011;8790;53.590;10.002;2023-01-10T13:28:33;18.33;;;9.20;;
17345;SDS011;8790;53.590;10.002;2023-01-10T13:31:20;18.07;;;10.37;;
17345;SDS011;8790;53.590;10.002;2023-01-10T13:33:54;20.37;;;9.97;;
17345;SDS011;8790;53.590;10.002;2023-01-10T13:36:30;15.53;;;10.10;;
17345;SDS011;8790;53.590;10.002;2023-01-10T13:39:17;22.77;;;10.07;;
17345;SDS011;8790;53.590;10.002;2023-01-10T13:45:24;19.10;;;10.00;;
17345;SDS011;8790;53.590;10.002;2023-01-10T13:48:04;18.80;;;9.90;;
17345;SDS011;8790;53.590;10.002;2023-01-10T13:51:04;19.00;;;9.67;;
17345;SDS011;8790;53.590;10.002;2023-01-10T13:53:44;17.50;;;9.40;;
17345;SDS011;8790;53.590;10.002;2023-01-10T13:56:28;18.63;;;9.03;;
17345;SDS011;8790;53.590;10.002;2023-01-10T13:59:03;18.90;;;9.33;;
17345;SDS011;8790;53.590;10.002;2023-01-10T14:01:58;17.33;;;9.37;;
17345;SDS011;8790;53.590;10.002;2023-01-10T14:04:50;18.23;;;9.17;;
17345;SDS011;8790;53.590;10.002;2023-01-10T14:07:24;17.67;;;9.07;;
17345;SDS011;8790;53.590;10.002;2023-01-10T14:09:59;17.30;;;8.90;;
17345;SDS011;8790;53.590;10.002;2023-01-10T14:12:34;14.70;;;8.37;;
17345;SDS011;8790;53.590;10.002;2023-01-10T14:15:20;17.63;;;8.90;;
17345;SDS011;8790;53.590;10.002;2023-01-10T14:17:55;16.37;;;8.60;;
17345;SDS011;8790;53.590;10.002;2023-01-10T14:20:31;16.67;;;8.27;;
17345;SDS011;8790;53.590;10.002;2023-01-10T14:23:05;13.37;;;7.83;;
17345;SDS011;8790;53.590;10.002;2023-01-10T14:25:50;16.70;;;8.80;;
17345;SDS011;8790;53.590;10.002;2023-01-10T14:28:24;18.43;;;9.27;;
17345;SDS011;8790;53.590;10.002;2023-01-10T14:31:00;12.27;;;7.47;;
17345;SDS011;8790;53.590;10.002;2023-01-10T14:33:34;15.80;;;7.13;;
17345;SDS011;8790;53.590;10.002;2023-01-10T14:36:07;14.50;;;6.70;;
17345;SDS011;8790;53.590;10.002;2023-01-10T14:38:44;14.97;;;7.00;;
17345;SDS011;8790;53.590;10.002;2023-01-10T14:41:18;12.60;;;6.43;;
17345;SDS011;8790;53.590;10.002;2023-01-10T14:44:05;16.43;;;7.10;;
17345;SDS011;8790;53.590;10.002;2023-01-10T14:46:43;14.27;;;6.00;;
17345;SDS011;8790;53.590;10.002;2023-01-10T14:49:21;14.10;;;6.60;;
17345;SDS011;8790;53.590;10.002;2023-01-10T14:51:55;14.13;;;6.23;;
17345;SDS011;8790;53.590;10.002;2023-01-10T14:54:42;17.73;;;6.37;;
17345;SDS011;8790;53.590;10.002;2023-01-10T14:57:15;14.90;;;6.20;;
17345;SDS011;8790;53.590;10.002;2023-01-10T14:59:48;12.57;;;6.13;;
17345;SDS011;8790;53.590;10.002;2023-01-10T15:02:23;16.47;;;5.77;;
17345;SDS011;8790;53.590;10.002;2023-01-10T15:04:56;15.20;;;6.17;;
17345;SDS011;8790;53.590;10.002;2023-01-10T15:07:30;9.97;;;5.50;;
17345;SDS011;8790;53.590;10.002;2023-01-10T15:10:08;11.83;;;5.67;;
17345;SDS011;8790;53.590;10.002;2023-01-10T15:12:50;10.73;;;6.00;;
17345;SDS011;8790;53.590;10.002;2023-01-10T15:15:26;12.97;;;5.63;;
17345;SDS011;8790;53.590;10.002;2023-01-10T15:18:05;20.53;;;11.80;;
17345;SDS011;8790;53.590;10.002;2023-01-10T15:20:41;15.10;;;6.30;;
17345;SDS011;8790;53.590;10.002;2023-01-10T15:23:13;14.37;;;5.60;;
17345;SDS011;8790;53.590;10.002;2023-01-10T15:25:45;12.43;;;5.43;;
17345;SDS011;8790;53.590;10.002;2023-01-10T15:28:26;11.70;;;5.90;;
17345;SDS011;8790;53.590;10.002;2023-01-10T15:31:00;14.63;;;5.70;;
17345;SDS011;8790;53.590;10.002;2023-01-10T15:33:35;15.63;;;6.07;;
17345;SDS011;8790;53.590;10.002;2023-01-10T15:36:11;14.90;;;6.03;;